sensor_id;sensor_type;location;lat;lon;timestamp;temperature;humidity
81842;DHT22;71284;50.918;7.092;2023-08-06T00:00:59;18.50;65.20
81842;DHT22;71284;50.918;7.092;2023-08-06T00:03:25;18.40;64.90
81842;DHT22;71284;50.918;7.092;2023-08-06T00:05:52;18.50;64.80
81842;DHT22;71284;50.918;7.092;2023-08-06T00:08:19;18.50;64.60
81842;DHT22;71284;50.918;7.092;2023-08-06T00:10:47;18.40;64.70
81842;DHT22;71284;50.918;7.092;2023-08-06T00:13:12;18.40;65.00
81842;DHT22;71284;50.918;7.092;2023-08-06T00:15:38;18.30;65.40
81842;DHT22;71284;50.918;7.092;2023-08-06T00:18:05;18.30;65.40
81842;DHT22;71284;50.918;7.092;2023-08-06T00:20:32;18.30;65.40
81842;DHT22;71284;50.918;7.092;2023-08-06T00:22:58;18.20;65.60
81842;DHT22;71284;50.918;7.092;2023-08-06T00:25:25;18.20;65.50
81842;DHT22;71284;50.918;7.092;2023-08-06T00:27:51;18.20;65.50
81842;DHT22;71284;50.918;7.092;2023-08-06T00:30:18;18.20;65.00
81842;DHT22;71284;50.918;7.092;2023-08-06T00:32:44;18.30;65.30
81842;DHT22;71284;50.918;7.092;2023-08-06T00:35:11;18.30;65.40
81842;DHT22;71284;50.918;7.092;2023-08-06T00:37:38;18.10;65.80
81842;DHT22;71284;50.918;7.092;2023-08-06T00:40:06;18.10;65.40
81842;DHT22;71284;50.918;7.092;2023-08-06T00:42:32;18.20;65.10
81842;DHT22;71284;50.918;7.092;2023-08-06T00:44:59;18.20;64.90
81842;DHT22;71284;50.918;7.092;2023-08-06T00:47:25;18.10;65.10
81842;DHT22;71284;50.918;7.092;2023-08-06T00:49:52;18.00;65.80
81842;DHT22;71284;50.918;7.092;2023-08-06T00:52:19;17.90;66.00
81842;DHT22;71284;50.918;7.092;2023-08-06T00:54:45;17.90;66.60
81842;DHT22;71284;50.918;7.092;2023-08-06T00:57:12;17.80;66.60
81842;DHT22;71284;50.918;7.092;2023-08-06T00:59:38;17.80;66.40
81842;DHT22;71284;50.918;7.092;2023-08-06T01:02:05;17.80;66.40
81842;DHT22;71284;50.918;7.092;2023-08-06T01:04:32;17.80;66.40
81842;DHT22;71284;50.918;7.092;2023-08-06T01:07:13;17.80;66.50
81842;DHT22;71284;50.918;7.092;2023-08-06T01:12:34;17.90;65.80
81842;DHT22;71284;50.918;7.092;2023-08-06T01:15:07;17.90;65.80
81842;DHT22;71284;50.918;7.092;2023-08-06T01:17:36;17.90;66.20
81842;DHT22;71284;50.918;7.092;2023-08-06T01:20:02;17.80;66.40
81842;DHT22;71284;50.918;7.092;2023-08-06T01:22:29;17.90;66.30
81842;DHT22;71284;50.918;7.092;2023-08-06T01:24:55;17.90;66.50
81842;DHT22;71284;50.918;7.092;2023-08-06T01:30:12;18.00;66.00
81842;DHT22;71284;50.918;7.092;2023-08-06T01:32:38;18.00;66.40
81842;DHT22;71284;50.918;7.092;2023-08-06T01:35:04;18.10;65.90
81842;DHT22;71284;50.918;7.092;2023-08-06T01:37:31;18.10;65.90
81842;DHT22;71284;50.918;7.092;2023-08-06T01:39:57;18.10;65.80
81842;DHT22;71284;50.918;7.092;2023-08-06T01:42:24;18.20;65.40
81842;DHT22;71284;50.918;7.092;2023-08-06T01:44:50;18.20;65.10
81842;DHT22;71284;50.918;7.092;2023-08-06T01:47:17;18.30;65.20
81842;DHT22;71284;50.918;7.092;2023-08-06T01:49:43;18.20;65.10
81842;DHT22;71284;50.918;7.092;2023-08-06T01:52:10;18.30;64.90
81842;DHT22;71284;50.918;7.092;2023-08-06T01:54:37;18.30;65.10
81842;DHT22;71284;50.918;7.092;2023-08-06T01:57:04;18.20;64.90
81842;DHT22;71284;50.918;7.092;2023-08-06T01:59:30;18.20;64.90
81842;DHT22;71284;50.918;7.092;2023-08-06T02:01:57;18.30;65.20
81842;DHT22;71284;50.918;7.092;2023-08-06T02:04:23;18.20;65.70
81842;DHT22;71284;50.918;7.092;2023-08-06T02:06:50;18.20;65.30
81842;DHT22;71284;50.918;7.092;2023-08-06T02:09:17;18.20;65.50
81842;DHT22;71284;50.918;7.092;2023-08-06T02:11:43;18.20;65.50
81842;DHT22;71284;50.918;7.092;2023-08-06T02:14:10;18.10;65.50
81842;DHT22;71284;50.918;7.092;2023-08-06T02:16:36;18.20;65.60
81842;DHT22;71284;50.918;7.092;2023-08-06T02:19:03;18.20;65.30
81842;DHT22;71284;50.918;7.092;2023-08-06T02:21:30;18.10;65.00
81842;DHT22;71284;50.918;7.092;2023-08-06T02:23:56;18.20;65.20
81842;DHT22;71284;50.918;7.092;2023-08-06T02:26:23;18.10;65.40
81842;DHT22;71284;50.918;7.092;2023-08-06T02:28:49;18.10;65.70
81842;DHT22;71284;50.918;7.092;2023-08-06T02:31:16;18.10;65.80
81842;DHT22;71284;50.918;7.092;2023-08-06T02:33:43;18.00;65.80
81842;DHT22;71284;50.918;7.092;2023-08-06T02:36:09;17.90;66.30
81842;DHT22;71284;50.918;7.092;2023-08-06T02:38:36;18.00;65.90
81842;DHT22;71284;50.918;7.092;2023-08-06T02:41:03;18.00;65.80
81842;DHT22;71284;50.918;7.092;2023-08-06T02:43:29;18.20;65.40
81842;DHT22;71284;50.918;7.092;2023-08-06T02:45:57;18.20;65.10
81842;DHT22;71284;50.918;7.092;2023-08-06T02:48:23;18.20;65.30
81842;DHT22;71284;50.918;7.092;2023-08-06T02:50:49;18.10;65.40
81842;DHT22;71284;50.918;7.092;2023-08-06T02:53:16;18.10;65.70
81842;DHT22;71284;50.918;7.092;2023-08-06T02:55:45;18.10;65.90
81842;DHT22;71284;50.918;7.092;2023-08-06T02:58:11;18.20;65.60
81842;DHT22;71284;50.918;7.092;2023-08-06T03:00:38;18.20;65.40
81842;DHT22;71284;50.918;7.092;2023-08-06T03:03:04;18.20;65.40
81842;DHT22;71284;50.918;7.092;2023-08-06T03:05:31;18.30;65.00
81842;DHT22;71284;50.918;7.092;2023-08-06T03:07:57;18.20;65.60
81842;DHT22;71284;50.918;7.092;2023-08-06T03:10:24;18.10;65.90
81842;DHT22;71284;50.918;7.092;2023-08-06T03:12:51;18.10;66.10
81842;DHT22;71284;50.918;7.092;2023-08-06T03:15:17;18.10;65.80
81842;DHT22;71284;50.918;7.092;2023-08-06T03:17:44;18.20;65.90
81842;DHT22;71284;50.918;7.092;2023-08-06T03:20:10;18.20;65.60
81842;DHT22;71284;50.918;7.092;2023-08-06T03:22:37;18.20;65.40
81842;DHT22;71284;50.918;7.092;2023-08-06T03:25:04;18.20;65.40
81842;DHT22;71284;50.918;7.092;2023-08-06T03:27:31;18.20;65.40
81842;DHT22;71284;50.918;7.092;2023-08-06T03:29:58;18.20;65.10
81842;DHT22;71284;50.918;7.092;2023-08-06T03:32:24;18.20;65.60
81842;DHT22;71284;50.918;7.092;2023-08-06T03:34:51;18.30;65.30
81842;DHT22;71284;50.918;7.092;2023-08-06T03:37:17;18.30;65.50
81842;DHT22;71284;50.918;7.092;2023-08-06T03:39:44;18.30;65.10
81842;DHT22;71284;50.918;7.092;2023-08-06T03:42:10;18.40;64.80
81842;DHT22;71284;50.918;7.092;2023-08-06T03:44:37;18.40;64.80
81842;DHT22;71284;50.918;7.092;2023-08-06T03:47:04;18.30;65.20
81842;DHT22;71284;50.918;7.092;2023-08-06T03:49:31;18.30;65.40
81842;DHT22;71284;50.918;7.092;2023-08-06T03:51:57;18.30;66.00
81842;DHT22;71284;50.918;7.092;2023-08-06T03:54:24;18.10;66.90
81842;DHT22;71284;50.918;7.092;2023-08-06T03:56:51;17.90;67.40
81842;DHT22;71284;50.918;7.092;2023-08-06T03:59:17;17.90;67.60
81842;DHT22;71284;50.918;7.092;2023-08-06T04:01:44;18.00;67.20
81842;DHT22;71284;50.918;7.092;2023-08-06T04:04:10;18.00;67.30
81842;DHT22;71284;50.918;7.092;2023-08-06T04:06:37;17.90;67.70
81842;DHT22;71284;50.918;7.092;2023-08-06T04:09:03;17.90;67.90
81842;DHT22;71284;50.918;7.092;2023-08-06T04:11:30;18.00;67.50
81842;DHT22;71284;50.918;7.092;2023-08-06T04:13:57;17.90;67.90
81842;DHT22;71284;50.918;7.092;2023-08-06T04:16:23;18.00;67.90
81842;DHT22;71284;50.918;7.092;2023-08-06T04:18:50;17.90;67.90
81842;DHT22;71284;50.918;7.092;2023-08-06T04:21:16;18.10;67.60
81842;DHT22;71284;50.918;7.092;2023-08-06T04:23:43;18.10;67.60
81842;DHT22;71284;50.918;7.092;2023-08-06T04:26:10;18.10;67.50
81842;DHT22;71284;50.918;7.092;2023-08-06T04:28:36;18.10;67.00
81842;DHT22;71284;50.918;7.092;2023-08-06T04:31:03;18.20;67.10
81842;DHT22;71284;50.918;7.092;2023-08-06T04:33:29;18.10;67.10
81842;DHT22;71284;50.918;7.092;2023-08-06T04:35:56;18.10;67.70
81842;DHT22;71284;50.918;7.092;2023-08-06T04:38:24;18.00;67.80
81842;DHT22;71284;50.918;7.092;2023-08-06T04:40:50;17.90;68.20
81842;DHT22;71284;50.918;7.092;2023-08-06T04:43:16;17.90;68.10
81842;DHT22;71284;50.918;7.092;2023-08-06T04:45:49;17.90;68.20
81842;DHT22;71284;50.918;7.092;2023-08-06T04:48:15;17.70;69.10
81842;DHT22;71284;50.918;7.092;2023-08-06T04:50:45;17.70;68.90
81842;DHT22;71284;50.918;7.092;2023-08-06T04:53:11;17.80;68.50
81842;DHT22;71284;50.918;7.092;2023-08-06T04:55:37;17.80;68.60
81842;DHT22;71284;50.918;7.092;2023-08-06T04:58:04;17.90;68.10
81842;DHT22;71284;50.918;7.092;2023-08-06T05:00:31;18.10;67.70
81842;DHT22;71284;50.918;7.092;2023-08-06T05:02:59;18.10;67.20
81842;DHT22;71284;50.918;7.092;2023-08-06T05:05:24;18.20;67.50
81842;DHT22;71284;50.918;7.092;2023-08-06T05:07:50;18.20;67.00
81842;DHT22;71284;50.918;7.092;2023-08-06T05:10:17;18.20;67.40
81842;DHT22;71284;50.918;7.092;2023-08-06T05:12:44;18.20;67.70
81842;DHT22;71284;50.918;7.092;2023-08-06T05:15:10;18.20;67.90
81842;DHT22;71284;50.918;7.092;2023-08-06T05:17:37;18.20;67.40
81842;DHT22;71284;50.918;7.092;2023-08-06T05:20:09;18.20;67.50
81842;DHT22;71284;50.918;7.092;2023-08-06T05:22:36;18.20;67.80
81842;DHT22;71284;50.918;7.092;2023-08-06T05:25:02;18.20;67.50
81842;DHT22;71284;50.918;7.092;2023-08-06T05:27:29;18.20;67.40
81842;DHT22;71284;50.918;7.092;2023-08-06T05:29:56;18.10;67.60
81842;DHT22;71284;50.918;7.092;2023-08-06T05:32:22;18.10;68.10
81842;DHT22;71284;50.918;7.092;2023-08-06T05:34:49;18.20;67.70
81842;DHT22;71284;50.918;7.092;2023-08-06T05:37:15;18.10;68.30
81842;DHT22;71284;50.918;7.092;2023-08-06T05:39:42;18.10;68.30
81842;DHT22;71284;50.918;7.092;2023-08-06T05:42:08;18.10;68.10
81842;DHT22;71284;50.918;7.092;2023-08-06T05:44:35;18.10;68.30
81842;DHT22;71284;50.918;7.092;2023-08-06T05:47:02;18.10;68.70
81842;DHT22;71284;50.918;7.092;2023-08-06T05:49:28;18.30;67.90
81842;DHT22;71284;50.918;7.092;2023-08-06T05:51:55;18.40;67.80
81842;DHT22;71284;50.918;7.092;2023-08-06T05:54:21;18.40;67.50
81842;DHT22;71284;50.918;7.092;2023-08-06T05:56:48;18.30;68.10
81842;DHT22;71284;50.918;7.092;2023-08-06T05:59:15;18.40;67.40
81842;DHT22;71284;50.918;7.092;2023-08-06T06:01:41;18.50;67.10
81842;DHT22;71284;50.918;7.092;2023-08-06T06:04:08;18.50;67.00
81842;DHT22;71284;50.918;7.092;2023-08-06T06:06:34;18.60;66.90
81842;DHT22;71284;50.918;7.092;2023-08-06T06:09:01;18.60;67.00
81842;DHT22;71284;50.918;7.092;2023-08-06T06:11:28;18.70;66.90
81842;DHT22;71284;50.918;7.092;2023-08-06T06:13:54;18.60;67.50
81842;DHT22;71284;50.918;7.092;2023-08-06T06:16:21;18.60;67.00
81842;DHT22;71284;50.918;7.092;2023-08-06T06:18:47;18.70;67.00
81842;DHT22;71284;50.918;7.092;2023-08-06T06:21:14;18.60;67.20
81842;DHT22;71284;50.918;7.092;2023-08-06T06:23:40;18.70;67.30
81842;DHT22;71284;50.918;7.092;2023-08-06T06:26:07;18.80;66.70
81842;DHT22;71284;50.918;7.092;2023-08-06T06:28:34;18.70;67.10
81842;DHT22;71284;50.918;7.092;2023-08-06T06:31:01;18.70;67.10
81842;DHT22;71284;50.918;7.092;2023-08-06T06:33:27;18.80;66.80
81842;DHT22;71284;50.918;7.092;2023-08-06T06:35:53;19.00;66.50
81842;DHT22;71284;50.918;7.092;2023-08-06T06:38:20;19.00;66.50
81842;DHT22;71284;50.918;7.092;2023-08-06T06:40:54;19.00;66.30
81842;DHT22;71284;50.918;7.092;2023-08-06T06:43:20;19.00;66.50
81842;DHT22;71284;50.918;7.092;2023-08-06T06:45:46;19.00;66.70
81842;DHT22;71284;50.918;7.092;2023-08-06T06:48:13;19.00;66.60
81842;DHT22;71284;50.918;7.092;2023-08-06T06:50:40;19.00;66.60
81842;DHT22;71284;50.918;7.092;2023-08-06T06:53:06;19.10;66.50
81842;DHT22;71284;50.918;7.092;2023-08-06T06:55:33;19.10;67.30
81842;DHT22;71284;50.918;7.092;2023-08-06T06:57:59;19.00;66.70
81842;DHT22;71284;50.918;7.092;2023-08-06T07:00:26;19.00;66.90
81842;DHT22;71284;50.918;7.092;2023-08-06T07:02:53;19.00;66.90
81842;DHT22;71284;50.918;7.092;2023-08-06T07:05:19;19.00;66.90
81842;DHT22;71284;50.918;7.092;2023-08-06T07:07:46;18.90;67.00
81842;DHT22;71284;50.918;7.092;2023-08-06T07:10:12;18.90;66.70
81842;DHT22;71284;50.918;7.092;2023-08-06T07:12:39;19.00;66.20
81842;DHT22;71284;50.918;7.092;2023-08-06T07:15:06;19.00;66.50
81842;DHT22;71284;50.918;7.092;2023-08-06T07:17:32;18.90;66.80
81842;DHT22;71284;50.918;7.092;2023-08-06T07:19:59;19.10;66.70
81842;DHT22;71284;50.918;7.092;2023-08-06T07:22:26;19.00;66.60
81842;DHT22;71284;50.918;7.092;2023-08-06T07:24:52;18.80;66.90
81842;DHT22;71284;50.918;7.092;2023-08-06T07:27:19;18.50;67.70
81842;DHT22;71284;50.918;7.092;2023-08-06T07:29:45;18.40;67.30
81842;DHT22;71284;50.918;7.092;2023-08-06T07:32:12;18.50;67.10
81842;DHT22;71284;50.918;7.092;2023-08-06T07:34:39;18.70;67.10
81842;DHT22;71284;50.918;7.092;2023-08-06T07:37:05;18.60;66.60
81842;DHT22;71284;50.918;7.092;2023-08-06T07:39:32;18.70;66.70
81842;DHT22;71284;50.918;7.092;2023-08-06T07:41:58;18.50;67.30
81842;DHT22;71284;50.918;7.092;2023-08-06T07:44:25;18.60;67.00
81842;DHT22;71284;50.918;7.092;2023-08-06T07:46:52;18.40;67.60
81842;DHT22;71284;50.918;7.092;2023-08-06T07:49:18;18.50;67.10
81842;DHT22;71284;50.918;7.092;2023-08-06T07:51:45;18.50;66.90
81842;DHT22;71284;50.918;7.092;2023-08-06T07:54:11;18.40;67.80
81842;DHT22;71284;50.918;7.092;2023-08-06T07:56:38;18.50;67.80
81842;DHT22;71284;50.918;7.092;2023-08-06T07:59:04;18.60;67.60
81842;DHT22;71284;50.918;7.092;2023-08-06T08:01:31;18.70;67.10
81842;DHT22;71284;50.918;7.092;2023-08-06T08:03:58;18.60;66.70
81842;DHT22;71284;50.918;7.092;2023-08-06T08:06:24;18.70;66.80
81842;DHT22;71284;50.918;7.092;2023-08-06T08:08:51;18.80;66.50
81842;DHT22;71284;50.918;7.092;2023-08-06T08:11:18;18.80;66.60
81842;DHT22;71284;50.918;7.092;2023-08-06T08:13:44;18.70;67.20
81842;DHT22;71284;50.918;7.092;2023-08-06T08:16:11;18.70;66.50
81842;DHT22;71284;50.918;7.092;2023-08-06T08:18:37;18.50;67.10
81842;DHT22;71284;50.918;7.092;2023-08-06T08:21:04;18.50;67.50
81842;DHT22;71284;50.918;7.092;2023-08-06T08:23:31;18.70;67.10
81842;DHT22;71284;50.918;7.092;2023-08-06T08:25:57;18.90;66.60
81842;DHT22;71284;50.918;7.092;2023-08-06T08:28:24;19.00;66.40
81842;DHT22;71284;50.918;7.092;2023-08-06T08:30:50;19.20;66.60
81842;DHT22;71284;50.918;7.092;2023-08-06T08:33:17;19.20;66.30
81842;DHT22;71284;50.918;7.092;2023-08-06T08:35:45;19.20;65.50
81842;DHT22;71284;50.918;7.092;2023-08-06T08:38:10;18.90;66.00
81842;DHT22;71284;50.918;7.092;2023-08-06T08:40:37;18.80;66.60
81842;DHT22;71284;50.918;7.092;2023-08-06T08:43:03;18.70;67.40
81842;DHT22;71284;50.918;7.092;2023-08-06T08:45:30;18.80;66.80
81842;DHT22;71284;50.918;7.092;2023-08-06T08:47:56;19.00;66.40
81842;DHT22;71284;50.918;7.092;2023-08-06T08:50:23;19.20;66.10
81842;DHT22;71284;50.918;7.092;2023-08-06T08:52:50;19.30;66.10
81842;DHT22;71284;50.918;7.092;2023-08-06T08:55:16;19.30;65.80
81842;DHT22;71284;50.918;7.092;2023-08-06T08:57:43;19.30;66.20
81842;DHT22;71284;50.918;7.092;2023-08-06T09:00:10;19.30;66.00
81842;DHT22;71284;50.918;7.092;2023-08-06T09:02:36;19.20;66.30
81842;DHT22;71284;50.918;7.092;2023-08-06T09:05:03;19.30;66.20
81842;DHT22;71284;50.918;7.092;2023-08-06T09:07:35;19.40;66.10
81842;DHT22;71284;50.918;7.092;2023-08-06T09:09:59;19.50;66.50
81842;DHT22;71284;50.918;7.092;2023-08-06T09:12:25;19.80;66.10
81842;DHT22;71284;50.918;7.092;2023-08-06T09:14:52;19.90;65.80
81842;DHT22;71284;50.918;7.092;2023-08-06T09:17:19;19.90;65.20
81842;DHT22;71284;50.918;7.092;2023-08-06T09:19:46;20.00;64.80
81842;DHT22;71284;50.918;7.092;2023-08-06T09:22:12;20.20;65.20
81842;DHT22;71284;50.918;7.092;2023-08-06T09:24:39;20.40;65.00
81842;DHT22;71284;50.918;7.092;2023-08-06T09:27:05;20.40;64.30
81842;DHT22;71284;50.918;7.092;2023-08-06T09:29:31;20.10;64.70
81842;DHT22;71284;50.918;7.092;2023-08-06T09:31:58;20.00;65.00
81842;DHT22;71284;50.918;7.092;2023-08-06T09:34:25;20.00;65.40
81842;DHT22;71284;50.918;7.092;2023-08-06T09:36:52;20.10;65.50
81842;DHT22;71284;50.918;7.092;2023-08-06T09:39:18;20.10;65.70
81842;DHT22;71284;50.918;7.092;2023-08-06T09:41:46;20.30;65.60
81842;DHT22;71284;50.918;7.092;2023-08-06T09:44:19;20.40;65.50
81842;DHT22;71284;50.918;7.092;2023-08-06T09:46:48;20.40;65.40
81842;DHT22;71284;50.918;7.092;2023-08-06T09:49:15;20.10;65.30
81842;DHT22;71284;50.918;7.092;2023-08-06T09:51:41;19.70;67.70
81842;DHT22;71284;50.918;7.092;2023-08-06T09:54:07;19.30;67.50
81842;DHT22;71284;50.918;7.092;2023-08-06T09:56:34;19.40;67.60
81842;DHT22;71284;50.918;7.092;2023-08-06T09:59:00;19.50;67.50
81842;DHT22;71284;50.918;7.092;2023-08-06T10:01:27;19.40;67.90
81842;DHT22;71284;50.918;7.092;2023-08-06T10:03:54;19.30;68.20
81842;DHT22;71284;50.918;7.092;2023-08-06T10:06:20;19.40;67.60
81842;DHT22;71284;50.918;7.092;2023-08-06T10:08:47;19.40;67.70
81842;DHT22;71284;50.918;7.092;2023-08-06T10:11:13;19.50;67.50
81842;DHT22;71284;50.918;7.092;2023-08-06T10:13:41;19.50;67.10
81842;DHT22;71284;50.918;7.092;2023-08-06T10:16:07;19.50;67.10
81842;DHT22;71284;50.918;7.092;2023-08-06T10:18:35;19.40;67.80
81842;DHT22;71284;50.918;7.092;2023-08-06T10:21:00;19.40;67.90
81842;DHT22;71284;50.918;7.092;2023-08-06T10:23:36;19.00;69.40
81842;DHT22;71284;50.918;7.092;2023-08-06T10:26:03;18.90;70.00
81842;DHT22;71284;50.918;7.092;2023-08-06T10:28:35;18.80;70.40
81842;DHT22;71284;50.918;7.092;2023-08-06T10:31:01;19.00;68.70
81842;DHT22;71284;50.918;7.092;2023-08-06T10:33:39;18.60;67.80
81842;DHT22;71284;50.918;7.092;2023-08-06T10:35:54;18.60;67.80
81842;DHT22;71284;50.918;7.092;2023-08-06T10:38:21;18.50;67.90
81842;DHT22;71284;50.918;7.092;2023-08-06T10:40:48;18.20;68.20
81842;DHT22;71284;50.918;7.092;2023-08-06T10:43:26;17.70;69.70
81842;DHT22;71284;50.918;7.092;2023-08-06T10:45:52;17.50;70.50
81842;DHT22;71284;50.918;7.092;2023-08-06T10:48:30;17.00;71.20
81842;DHT22;71284;50.918;7.092;2023-08-06T10:50:56;17.00;70.40
81842;DHT22;71284;50.918;7.092;2023-08-06T10:53:22;16.90;71.80
81842;DHT22;71284;50.918;7.092;2023-08-06T10:55:49;16.80;71.40
81842;DHT22;71284;50.918;7.092;2023-08-06T10:58:16;16.80;71.40
81842;DHT22;71284;50.918;7.092;2023-08-06T11:00:42;16.70;71.00
81842;DHT22;71284;50.918;7.092;2023-08-06T11:03:09;16.40;72.30
81842;DHT22;71284;50.918;7.092;2023-08-06T11:05:35;16.30;73.00
81842;DHT22;71284;50.918;7.092;2023-08-06T11:08:02;16.30;72.00
81842;DHT22;71284;50.918;7.092;2023-08-06T11:10:29;16.40;72.50
81842;DHT22;71284;50.918;7.092;2023-08-06T11:13:00;16.30;72.90
81842;DHT22;71284;50.918;7.092;2023-08-06T11:15:22;16.10;73.80
81842;DHT22;71284;50.918;7.092;2023-08-06T11:17:48;16.20;72.70
81842;DHT22;71284;50.918;7.092;2023-08-06T11:20:15;16.20;73.40
81842;DHT22;71284;50.918;7.092;2023-08-06T11:22:42;16.20;72.50
81842;DHT22;71284;50.918;7.092;2023-08-06T11:25:08;16.50;71.30
81842;DHT22;71284;50.918;7.092;2023-08-06T11:27:35;16.70;71.30
81842;DHT22;71284;50.918;7.092;2023-08-06T11:30:01;16.60;71.00
81842;DHT22;71284;50.918;7.092;2023-08-06T11:32:28;16.70;70.60
81842;DHT22;71284;50.918;7.092;2023-08-06T11:34:55;16.70;70.90
81842;DHT22;71284;50.918;7.092;2023-08-06T11:37:21;16.70;71.40
81842;DHT22;71284;50.918;7.092;2023-08-06T11:39:48;16.30;72.00
81842;DHT22;71284;50.918;7.092;2023-08-06T11:42:14;16.30;72.50
81842;DHT22;71284;50.918;7.092;2023-08-06T11:44:41;16.10;73.70
81842;DHT22;71284;50.918;7.092;2023-08-06T11:47:14;16.10;73.20
81842;DHT22;71284;50.918;7.092;2023-08-06T11:49:42;16.00;72.70
81842;DHT22;71284;50.918;7.092;2023-08-06T11:54:40;16.20;72.40
81842;DHT22;71284;50.918;7.092;2023-08-06T11:57:06;16.10;72.90
81842;DHT22;71284;50.918;7.092;2023-08-06T11:59:33;16.40;72.60
81842;DHT22;71284;50.918;7.092;2023-08-06T12:02:03;16.80;71.00
81842;DHT22;71284;50.918;7.092;2023-08-06T12:04:29;17.10;70.00
81842;DHT22;71284;50.918;7.092;2023-08-06T12:06:55;16.60;70.50
81842;DHT22;71284;50.918;7.092;2023-08-06T12:09:22;16.70;70.60
81842;DHT22;71284;50.918;7.092;2023-08-06T12:11:48;16.60;71.00
81842;DHT22;71284;50.918;7.092;2023-08-06T12:14:15;16.50;70.70
81842;DHT22;71284;50.918;7.092;2023-08-06T12:16:42;16.70;70.00
81842;DHT22;71284;50.918;7.092;2023-08-06T12:19:08;16.90;69.80
81842;DHT22;71284;50.918;7.092;2023-08-06T12:21:35;16.50;70.80
81842;DHT22;71284;50.918;7.092;2023-08-06T12:24:01;16.80;69.90
81842;DHT22;71284;50.918;7.092;2023-08-06T12:26:28;16.70;69.80
81842;DHT22;71284;50.918;7.092;2023-08-06T12:28:55;16.80;69.40
81842;DHT22;71284;50.918;7.092;2023-08-06T12:31:21;16.90;69.00
81842;DHT22;71284;50.918;7.092;2023-08-06T12:33:48;16.80;69.60
81842;DHT22;71284;50.918;7.092;2023-08-06T12:36:14;17.10;68.50
81842;DHT22;71284;50.918;7.092;2023-08-06T12:38:41;17.30;67.90
81842;DHT22;71284;50.918;7.092;2023-08-06T12:41:08;17.50;67.20
81842;DHT22;71284;50.918;7.092;2023-08-06T12:43:34;17.60;67.80
81842;DHT22;71284;50.918;7.092;2023-08-06T12:46:01;17.50;67.70
81842;DHT22;71284;50.918;7.092;2023-08-06T12:48:28;17.60;67.10
81842;DHT22;71284;50.918;7.092;2023-08-06T12:50:55;17.80;66.70
81842;DHT22;71284;50.918;7.092;2023-08-06T12:53:21;17.60;67.40
81842;DHT22;71284;50.918;7.092;2023-08-06T12:55:48;17.50;67.60
81842;DHT22;71284;50.918;7.092;2023-08-06T12:58:14;17.40;67.70
81842;DHT22;71284;50.918;7.092;2023-08-06T13:00:41;17.20;68.50
81842;DHT22;71284;50.918;7.092;2023-08-06T13:03:08;17.20;68.50
81842;DHT22;71284;50.918;7.092;2023-08-06T13:05:35;17.00;69.60
81842;DHT22;71284;50.918;7.092;2023-08-06T13:08:02;17.10;69.80
81842;DHT22;71284;50.918;7.092;2023-08-06T13:10:28;17.10;70.50
81842;DHT22;71284;50.918;7.092;2023-08-06T13:12:55;17.30;69.80
81842;DHT22;71284;50.918;7.092;2023-08-06T13:15:21;17.10;70.40
81842;DHT22;71284;50.918;7.092;2023-08-06T13:17:48;17.10;70.80
81842;DHT22;71284;50.918;7.092;2023-08-06T13:20:14;17.50;69.80
81842;DHT22;71284;50.918;7.092;2023-08-06T13:22:41;17.60;68.80
81842;DHT22;71284;50.918;7.092;2023-08-06T13:25:08;17.60;68.60
81842;DHT22;71284;50.918;7.092;2023-08-06T13:27:34;17.70;69.30
81842;DHT22;71284;50.918;7.092;2023-08-06T13:30:01;17.70;68.40
81842;DHT22;71284;50.918;7.092;2023-08-06T13:32:27;17.60;68.40
81842;DHT22;71284;50.918;7.092;2023-08-06T13:34:54;17.80;68.90
81842;DHT22;71284;50.918;7.092;2023-08-06T13:37:21;18.00;68.30
81842;DHT22;71284;50.918;7.092;2023-08-06T13:39:47;18.20;67.10
81842;DHT22;71284;50.918;7.092;2023-08-06T13:42:14;18.20;66.80
81842;DHT22;71284;50.918;7.092;2023-08-06T13:44:40;18.20;67.30
81842;DHT22;71284;50.918;7.092;2023-08-06T13:47:07;17.60;68.90
81842;DHT22;71284;50.918;7.092;2023-08-06T13:49:34;17.60;69.00
81842;DHT22;71284;50.918;7.092;2023-08-06T13:52:00;17.60;68.40
81842;DHT22;71284;50.918;7.092;2023-08-06T13:54:27;17.40;70.00
81842;DHT22;71284;50.918;7.092;2023-08-06T13:56:53;17.20;70.30
81842;DHT22;71284;50.918;7.092;2023-08-06T13:59:20;17.40;70.10
81842;DHT22;71284;50.918;7.092;2023-08-06T14:01:46;16.90;72.00
81842;DHT22;71284;50.918;7.092;2023-08-06T14:04:13;17.10;72.00
81842;DHT22;71284;50.918;7.092;2023-08-06T14:06:40;17.30;70.80
81842;DHT22;71284;50.918;7.092;2023-08-06T14:09:06;17.30;70.40
81842;DHT22;71284;50.918;7.092;2023-08-06T14:11:33;17.60;69.30
81842;DHT22;71284;50.918;7.092;2023-08-06T14:13:59;17.70;69.70
81842;DHT22;71284;50.918;7.092;2023-08-06T14:16:26;17.60;69.00
81842;DHT22;71284;50.918;7.092;2023-08-06T14:18:53;17.80;68.90
81842;DHT22;71284;50.918;7.092;2023-08-06T14:21:19;17.80;68.80
81842;DHT22;71284;50.918;7.092;2023-08-06T14:23:46;17.80;69.10
81842;DHT22;71284;50.918;7.092;2023-08-06T14:26:12;18.10;68.70
81842;DHT22;71284;50.918;7.092;2023-08-06T14:28:39;18.20;67.80
81842;DHT22;71284;50.918;7.092;2023-08-06T14:31:06;18.10;67.80
81842;DHT22;71284;50.918;7.092;2023-08-06T14:33:32;17.90;68.00
81842;DHT22;71284;50.918;7.092;2023-08-06T14:35:59;17.70;68.90
81842;DHT22;71284;50.918;7.092;2023-08-06T14:38:25;17.60;69.10
81842;DHT22;71284;50.918;7.092;2023-08-06T14:40:52;17.60;68.10
81842;DHT22;71284;50.918;7.092;2023-08-06T14:43:18;17.50;67.50
81842;DHT22;71284;50.918;7.092;2023-08-06T14:45:45;17.50;68.20
81842;DHT22;71284;50.918;7.092;2023-08-06T14:48:12;17.40;68.80
81842;DHT22;71284;50.918;7.092;2023-08-06T14:50:38;17.20;69.30
81842;DHT22;71284;50.918;7.092;2023-08-06T14:53:05;17.00;69.10
81842;DHT22;71284;50.918;7.092;2023-08-06T14:55:32;17.30;69.60
81842;DHT22;71284;50.918;7.092;2023-08-06T14:57:58;17.50;68.80
81842;DHT22;71284;50.918;7.092;2023-08-06T15:00:25;17.40;68.30
81842;DHT22;71284;50.918;7.092;2023-08-06T15:02:51;17.60;68.70
81842;DHT22;71284;50.918;7.092;2023-08-06T15:05:18;17.50;67.60
81842;DHT22;71284;50.918;7.092;2023-08-06T15:07:44;17.40;68.70
81842;DHT22;71284;50.918;7.092;2023-08-06T15:10:11;17.70;67.70
81842;DHT22;71284;50.918;7.092;2023-08-06T15:12:38;18.00;67.60
81842;DHT22;71284;50.918;7.092;2023-08-06T15:15:06;17.90;66.40
81842;DHT22;71284;50.918;7.092;2023-08-06T15:17:32;17.80;67.50
81842;DHT22;71284;50.918;7.092;2023-08-06T15:19:59;17.90;67.00
81842;DHT22;71284;50.918;7.092;2023-08-06T15:22:26;18.00;66.70
81842;DHT22;71284;50.918;7.092;2023-08-06T15:24:52;18.10;66.40
81842;DHT22;71284;50.918;7.092;2023-08-06T15:27:19;18.10;66.20
81842;DHT22;71284;50.918;7.092;2023-08-06T15:29:45;18.10;66.60
81842;DHT22;71284;50.918;7.092;2023-08-06T15:32:12;17.80;67.50
81842;DHT22;71284;50.918;7.092;2023-08-06T15:34:38;18.10;67.40